Detalii statie MIRACOM [00001CFF]

Toti senzorii

Date Temperatura solului [C]Precipitatii [mm]Voltaj baterie [mV]Leaf Wetness [Min]HC Air temperature [C]HC Relative humidity [%]Punctul de roua [C]
medieminmaxsumaultimatimpmedieminmaxmediemediemin
2017-06-25 06:00:00 23.1 22.9 23.3 0 7010 17.95 17.51 18.54 0 0 0
2017-06-25 07:00:00 22.8 22.8 22.9 0 7138 20.16 18.69 22.52 0 0 0
2017-06-25 08:00:00 23 22.9 23.1 0 7138 24.86 22.97 27.01 0 0 0
2017-06-25 09:00:00 23.2 22.8 23.6 0 7148 28.86 26.98 30.46 13.81 0
2017-06-25 10:00:00 24 23.7 24.5 0 7332 31.7 30.25 32.99 78.52 27.3 25
2017-06-25 11:00:00 25.2 25 25.6 0 7332 40 33.17 32.46 33.77 63.16 24.9 22.6
2017-06-25 12:00:00 26.3 25.6 27.1 0 7324 33.98 32.38 34.92 73.9 28.4 25.3
2017-06-25 13:00:00 28 27.2 29.2 0 7324 35.28 33.94 36.52 72.76 29.4 25.9
2017-06-25 14:00:00 30 29.3 30.7 0 7324 35.2 33.64 36.4 57.01 25.1 22.1
2017-06-25 15:00:00 31.5 30.9 32 0 7324 50 35.17 32.21 36.82 60.27 25.4 12.2
2017-06-25 16:00:00 32.7 32.1 33.3 0 7098 34.2 31.4 36.35 69.16 27.3 18.8
2017-06-25 17:00:00 33 32.9 33.3 0 7332 33.74 32.08 35.33 72.96 27.7 17.5
2017-06-25 18:00:00 33.5 33.4 33.7 0 7000 60 33.16 32.52 33.68 72.84 27.1 16
2017-06-25 19:00:00 33.3 32.9 33.7 0 7314 31.67 30.29 32.67 67.45 24.3 16.8
2017-06-25 20:00:00 32.3 31.7 32.9 0 6952 28.58 26.06 29.83 63.89 0
2017-06-25 21:00:00 31.1 30.7 31.9 0 6962 24.26 23.26 25.6 85.77 21.2 15
2017-06-25 22:00:00 30 29.6 30.7 0 6962 22.75 22.48 23.1 0 0 0
2017-06-25 23:00:00 28.9 28.6 29.4 0 6942 21.82 21.47 22.47 0 0 0
2017-06-26 00:00:00 28 27.7 28.5 0 6942 20.83 20.21 21.54 0 0 0
2017-06-26 01:00:00 27.1 26.8 27.5 0 6942 19.42 18.67 20.16 0 0 0
2017-06-26 02:00:00 26.4 26.3 26.8 0 6942 18.28 18.07 18.54 0 0 0
2017-06-26 03:00:00 25.8 25.6 26.1 0 6932 17.88 17.35 18.5 0 0 0
2017-06-26 04:00:00 25.2 25 25.6 0 6922 16.73 16.52 17.18 0 0 0
2017-06-26 05:00:00 24.7 24.5 25 0 6932 16.49 16.28 16.79 0 0 0
2017-06-26 06:00:00 24.2 24.1 24.4 0 7020 18.44 16.8 20.09 0 0 0
2017-06-26 07:00:00 24 24 24.2 0 7118 21.31 20.4 22.7 0 0 0
2017-06-26 08:00:00 24.1 23.9 24.3 0 7098 25.84 23.04 28.7 5.34 0
2017-06-26 09:00:00 24.2 24.1 24.5 0 7118 30.42 28.25 32.21 38.12 14.1 0
2017-06-26 10:00:00 25 24.7 25.6 0 7324 33.26 32.69 33.87 20.49 6.1 0
2017-06-26 11:00:00 25.9 25.4 26.4 0 7332 34.47 32.67 35.43 42.93 19.7 19.1
2017-06-26 12:00:00 27.3 26.5 28.3 0 7324 35.5 35.01 36.31 52.13 0
2017-06-26 13:00:00 29.3 28.4 30.3 0 7324 36.29 35.38 37.16 42.47 0
2017-06-26 14:00:00 31.2 30.4 32 0 7314 36.64 35.18 38.02 36.16 0
2017-06-26 15:00:00 33.5 33.4 33.8 0 7324 15 36.43 35.62 36.77 32.39 15.8 3.5
2017-06-26 16:00:00 34.5 34 35 0 7324 35.66 34.8 36.38 40.8 18.8 4.4
2017-06-26 17:00:00 35.4 35.1 35.8 0 7324 34.65 33.99 35.36 41.71 18.1 0.5
2017-06-26 18:00:00 35.8 35.7 36 0 7314 32.74 31.94 33.49 3.22 0
2017-06-26 19:00:00 35.4 35 35.9 0 7314 30.14 28.06 31.7 0 0 0
2017-06-26 20:00:00 34.1 33.3 34.9 0 6952 26.72 25.68 27.95 4.45 0
2017-06-26 21:00:00 32.5 31.7 33.4 0 6962 24.59 23.68 25.51 1.58 -1.7 0
2017-06-26 22:00:00 31 30.4 31.8 0 6894 22.58 21.72 23.39 14 0.3 0
2017-06-26 23:00:00 29.9 29.5 30.4 0 6922 20.94 20.04 21.55 10.5 0.5 0
2017-06-27 00:00:00 28.9 28.5 29.4 0 6914 20.42 19.26 21.95 4.96 0
2017-06-27 01:00:00 27.9 27.6 28.4 0 6932 19.43 18.37 21.01 0 0 0
2017-06-27 02:00:00 27.2 26.9 27.5 0 6932 18.17 17.92 18.48 0 0 0
2017-06-27 03:00:00 26.6 26.4 26.9 0 6922 18.21 17.93 18.43 0 0 0
2017-06-27 04:00:00 26.1 25.9 26.3 2.2 6932 19.3 18.27 19.99 0 0 0
2017-06-27 05:00:00 25.5 25.3 25.7 2.2 6922 18.8 18.64 18.95 0 0 0